This is the latest recevied weather packets stored in our database for station/object DJ4RO-13. If no packets are shown the sender has not sent any weather packets the latest 1 day(s).
| Time | Temp. | Humidity | Pressure | Rain* | Wind** | Luminosity | Snow |
|---|---|---|---|---|---|---|---|
| 1778003402 | 15° C | 86% | 1005.1 hPa | 0 mm | 0 m/s | - | - |
| 1778002802 | 15° C | 85% | 1005.1 hPa | 0 mm | 0.89 m/s, 332° | - | - |
| 1778002202 | 15° C | 85% | 1005.3 hPa | 0 mm | 0 m/s | - | - |
| 1778001602 | 15.56° C | 85% | 1005.1 hPa | 0 mm | 0 m/s | - | - |
| 1778001002 | 15.56° C | 83% | 1005 hPa | 0 mm | 0.89 m/s, 6° | - | - |
| 1778000402 | 16.11° C | 82% | 1005.1 hPa | 0 mm | 0.45 m/s, 330° | - | - |
| 1777999802 | 16.67° C | 81% | 1005.4 hPa | 0 mm | 0.89 m/s, 323° | - | - |
| 1777999202 | 16.11° C | 82% | 1005.2 hPa | 0 mm | 0 m/s | - | - |
| 1777998602 | 16.11° C | 82% | 1005.1 hPa | 0 mm | 0.89 m/s, 321° | - | - |
| 1777998002 | 16.11° C | 82% | 1005.4 hPa | 0 mm | 0.89 m/s, 110° | - | - |
| 1777997402 | 16.11° C | 83% | 1005.4 hPa | 0 mm | 0.45 m/s, 332° | - | - |
| 1777996802 | 16.11° C | 82% | 1005.4 hPa | 0 mm | 0.89 m/s, 306° | - | - |
| 1777996202 | 16.67° C | 80% | 1005.4 hPa | 0 mm | 0.45 m/s, 309° | - | - |
| 1777995602 | 17.22° C | 78% | 1005.5 hPa | 0 mm | 0 m/s | - | - |
| 1777995002 | 17.22° C | 77% | 1005.5 hPa | 0 mm | 0 m/s | - | - |
| 1777994402 | 17.22° C | 77% | 1005.3 hPa | 0 mm | 0.89 m/s, 342° | - | - |
| 1777993802 | 17.78° C | 76% | 1005.5 hPa | 0 mm | 0.89 m/s, 291° | - | - |
| 1777993202 | 18.89° C | 74% | 1005.5 hPa | 0 mm | 0.89 m/s, 325° | - | - |
| 1777992602 | 17.78° C | 75% | 1005.8 hPa | 0 mm | 0.45 m/s, 331° | - | - |
| 1777992002 | 17.78° C | 76% | 1005.6 hPa | 0 mm | 0.89 m/s, 322° | - | - |
| 1777991402 | 17.22° C | 78% | 1005.8 hPa | 0 mm | 0.45 m/s, 10° | - | - |
| 1777990802 | 17.78° C | 78% | 1005.8 hPa | 0 mm | 0.45 m/s, 329° | - | - |
| 1777990202 | 18.33° C | 75% | 1005.8 hPa | 0 mm | 0.45 m/s, 302° | - | - |
| 1777989602 | 18.33° C | 76% | 1005.6 hPa | 0 mm | 0.89 m/s, 325° | - | - |
| 1777989002 | 17.22° C | 78% | 1005.8 hPa | 0 mm | 0 m/s | - | - |
* Rain latest hour (hover to see other rain measurements)
** Current wind speed in m/s (hover to see current wind gust speed)